PWSweather.com
Personal Weather Stations
Station Observations
SUBOTICARS
SuboticaYU

SuboticaYU

Lat: 46.1296717, Lon: 19.641551

Elevation: 361

Station Type: Nexus

http://sumeteo.info

High Low Average
Temperature 37.0°F2.8°C 30.0°F-1.1°C 33.6°F0.9°C
Dew Point 32.5°F0.3°C 24.0°F-4.4°C 28.6°F-1.9°C
Winds 10.4 mph 16.7 kmh Calm Calm 5.0 mph SSW8.0 kmh SSW
Wind Gusts 13.8 mph22.2 kmh -- 5.0 mph8.0 kmh
Humidity 95% 74% 82%
Pressure 29.23 in989.8 mb 29.06 in984.1 mb -
Precipitation 0.22 in5.6 mm - -
Hour Temp Dew Point Humidity Winds Wind Gusts Pressure Precip Precip Rate Daily Precip Total
12:00 AM 30.2°F-1.0°C 24.2°F-4.3°C 78% 4.6 mph SE7.4 kmh SE 6.9 mph11.1 kmh 29.18 in988.1 mb - 0.00 in0.0 mm 0.00 in0.0 mm
12:10 AM 30.2°F-1.0°C 24.2°F-4.3°C 78% 6.9 mph SSE11.1 kmh SSE 8.1 mph13.0 kmh 29.18 in988.1 mb - 0.00 in0.0 mm 0.00 in0.0 mm
12:15 AM 30.2°F-1.0°C 24.2°F-4.3°C 78% 5.8 mph SSE9.3 kmh SSE 8.1 mph13.0 kmh 29.18 in988.1 mb - 0.00 in0.0 mm 0.00 in0.0 mm
12:20 AM 30.2°F-1.0°C 24.2°F-4.3°C 78% 3.5 mph SE5.6 kmh SE 4.6 mph7.4 kmh 29.18 in988.1 mb - 0.00 in0.0 mm 0.00 in0.0 mm
12:25 AM 30.2°F-1.0°C 24.2°F-4.3°C 78% 3.5 mph SSE5.6 kmh SSE 4.6 mph7.4 kmh 29.18 in988.1 mb - 0.00 in0.0 mm 0.00 in0.0 mm
12:30 AM 30.2°F-1.0°C 24.2°F-4.3°C 78% 4.6 mph SSE7.4 kmh SSE 5.8 mph9.3 kmh 29.18 in988.1 mb - 0.00 in0.0 mm 0.00 in0.0 mm
12:35 AM 30.2°F-1.0°C 24.2°F-4.3°C 78% 5.8 mph ESE9.3 kmh ESE 6.9 mph11.1 kmh 29.18 in988.1 mb - 0.00 in0.0 mm 0.00 in0.0 mm
12:40 AM 30.2°F-1.0°C 24.2°F-4.3°C 78% 4.6 mph SSE7.4 kmh SSE 4.6 mph7.4 kmh 29.18 in988.1 mb - 0.00 in0.0 mm 0.00 in0.0 mm
12:45 AM 30.0°F-1.1°C 24.0°F-4.4°C 78% 4.6 mph SE7.4 kmh SE 8.1 mph13.0 kmh 29.18 in988.1 mb - 0.00 in0.0 mm 0.00 in0.0 mm
12:50 AM 30.0°F-1.1°C 24.0°F-4.4°C 78% 5.8 mph SSE9.3 kmh SSE 5.8 mph9.3 kmh 29.18 in988.1 mb - 0.00 in0.0 mm 0.00 in0.0 mm
12:55 AM 30.0°F-1.1°C 24.0°F-4.4°C 78% 5.8 mph ESE9.3 kmh ESE 6.9 mph11.1 kmh 29.18 in988.1 mb - 0.00 in0.0 mm 0.00 in0.0 mm
01:00 AM 30.0°F-1.1°C 24.0°F-4.4°C 78% 4.6 mph SE7.4 kmh SE 4.6 mph7.4 kmh 29.17 in987.8 mb - 0.00 in0.0 mm 0.00 in0.0 mm
01:10 AM 30.2°F-1.0°C 24.2°F-4.3°C 78% 4.6 mph ESE7.4 kmh ESE 5.8 mph9.3 kmh 29.17 in987.8 mb - 0.00 in0.0 mm 0.00 in0.0 mm
01:15 AM 30.2°F-1.0°C 24.2°F-4.3°C 78% 4.6 mph SE7.4 kmh SE 5.8 mph9.3 kmh 29.16 in987.5 mb - 0.00 in0.0 mm 0.00 in0.0 mm
01:20 AM 30.2°F-1.0°C 24.2°F-4.3°C 78% 5.8 mph SE9.3 kmh SE 4.6 mph7.4 kmh 29.16 in987.5 mb - 0.00 in0.0 mm 0.00 in0.0 mm
01:25 AM 30.2°F-1.0°C 24.2°F-4.3°C 78% 5.8 mph ESE9.3 kmh ESE 5.8 mph9.3 kmh 29.16 in987.5 mb - 0.00 in0.0 mm 0.00 in0.0 mm
01:30 AM 30.3°F-0.9°C 24.2°F-4.3°C 78% 5.8 mph S9.3 kmh S 5.8 mph9.3 kmh 29.16 in987.5 mb - 0.00 in0.0 mm 0.00 in0.0 mm
01:35 AM 30.4°F-0.9°C 24.3°F-4.3°C 78% 5.8 mph SSE9.3 kmh SSE 8.1 mph13.0 kmh 29.16 in987.5 mb - 0.00 in0.0 mm 0.00 in0.0 mm
01:40 AM 30.6°F-0.8°C 24.5°F-4.2°C 78% 6.9 mph SSE11.1 kmh SSE 8.1 mph13.0 kmh 29.16 in987.5 mb - 0.00 in0.0 mm 0.00 in0.0 mm
01:45 AM 30.9°F-0.6°C 24.9°F-3.9°C 78% 5.8 mph SE9.3 kmh SE 5.8 mph9.3 kmh 29.16 in987.5 mb - 0.00 in0.0 mm 0.00 in0.0 mm
01:50 AM 31.1°F-0.5°C 25.0°F-3.9°C 78% 5.8 mph SE9.3 kmh SE 5.8 mph9.3 kmh 29.16 in987.5 mb - 0.00 in0.0 mm 0.00 in0.0 mm
01:55 AM 31.3°F-0.4°C 25.2°F-3.8°C 78% 5.8 mph SE9.3 kmh SE 5.8 mph9.3 kmh 29.16 in987.5 mb - 0.00 in0.0 mm 0.00 in0.0 mm
02:00 AM 31.5°F-0.3°C 25.4°F-3.7°C 78% 6.9 mph SE11.1 kmh SE 8.1 mph13.0 kmh 29.16 in987.5 mb - 0.00 in0.0 mm 0.00 in0.0 mm
02:10 AM 32.0°F0.0°C 25.9°F-3.4°C 78% 5.8 mph SE9.3 kmh SE 6.9 mph11.1 kmh 29.16 in987.5 mb - 0.00 in0.0 mm 0.00 in0.0 mm
02:15 AM 32.0°F0.0°C 25.9°F-3.4°C 78% 6.9 mph SSE11.1 kmh SSE 8.1 mph13.0 kmh 29.14 in986.8 mb - 0.00 in0.0 mm 0.00 in0.0 mm
02:20 AM 32.0°F0.0°C 25.9°F-3.4°C 78% 9.2 mph SE14.8 kmh SE 11.5 mph18.5 kmh 29.14 in986.8 mb - 0.00 in0.0 mm 0.00 in0.0 mm
02:25 AM 32.2°F0.1°C 26.1°F-3.3°C 78% 6.9 mph SSE11.1 kmh SSE 9.2 mph14.8 kmh 29.14 in986.8 mb - 0.00 in0.0 mm 0.00 in0.0 mm
02:30 AM 32.2°F0.1°C 26.1°F-3.3°C 78% 9.2 mph SE14.8 kmh SE 11.5 mph18.5 kmh 29.14 in986.8 mb - 0.00 in0.0 mm 0.00 in0.0 mm
02:35 AM 32.4°F0.2°C 26.3°F-3.2°C 78% 9.2 mph SSE14.8 kmh SSE 11.5 mph18.5 kmh 29.14 in986.8 mb - 0.00 in0.0 mm 0.00 in0.0 mm
02:40 AM 32.4°F0.2°C 26.3°F-3.2°C 78% 6.9 mph S11.1 kmh S 8.1 mph13.0 kmh 29.14 in986.8 mb - 0.00 in0.0 mm 0.00 in0.0 mm
02:45 AM 32.4°F0.2°C 26.3°F-3.2°C 78% 6.9 mph S11.1 kmh S 10.4 mph16.7 kmh 29.14 in986.8 mb - 0.00 in0.0 mm 0.00 in0.0 mm
02:50 AM 32.4°F0.2°C 26.3°F-3.2°C 78% 6.9 mph SE11.1 kmh SE 10.4 mph16.7 kmh 29.14 in986.8 mb - 0.00 in0.0 mm 0.00 in0.0 mm
02:55 AM 32.4°F0.2°C 26.3°F-3.2°C 78% 8.1 mph SE13.0 kmh SE 10.4 mph16.7 kmh 29.14 in986.8 mb - 0.00 in0.0 mm 0.00 in0.0 mm
03:00 AM 32.2°F0.1°C 26.1°F-3.3°C 78% 6.9 mph SSE11.1 kmh SSE 10.4 mph16.7 kmh 29.13 in986.5 mb - 0.00 in0.0 mm 0.00 in0.0 mm
03:10 AM 32.0°F0.0°C 25.3°F-3.7°C 76% 5.8 mph ESE9.3 kmh ESE 5.8 mph9.3 kmh 29.13 in986.5 mb - 0.00 in0.0 mm 0.00 in0.0 mm
03:15 AM 32.0°F0.0°C 25.9°F-3.4°C 78% 5.8 mph ESE9.3 kmh ESE 6.9 mph11.1 kmh 29.12 in986.1 mb - 0.00 in0.0 mm 0.00 in0.0 mm
03:20 AM 32.0°F0.0°C 25.9°F-3.4°C 78% 5.8 mph SE9.3 kmh SE 6.9 mph11.1 kmh 29.12 in986.1 mb - 0.00 in0.0 mm 0.00 in0.0 mm
03:25 AM 32.0°F0.0°C 25.9°F-3.4°C 78% 8.1 mph SE13.0 kmh SE 10.4 mph16.7 kmh 29.12 in986.1 mb - 0.00 in0.0 mm 0.00 in0.0 mm
03:30 AM 32.0°F0.0°C 25.9°F-3.4°C 78% 4.6 mph ESE7.4 kmh ESE 8.1 mph13.0 kmh 29.12 in986.1 mb - 0.00 in0.0 mm 0.00 in0.0 mm
03:35 AM 32.0°F0.0°C 25.9°F-3.4°C 78% 5.8 mph SE9.3 kmh SE 5.8 mph9.3 kmh 29.12 in986.1 mb - 0.00 in0.0 mm 0.00 in0.0 mm
03:40 AM 31.8°F-0.1°C 25.7°F-3.5°C 78% 5.8 mph ESE9.3 kmh ESE 5.8 mph9.3 kmh 29.12 in986.1 mb - 0.00 in0.0 mm 0.00 in0.0 mm
03:45 AM 31.6°F-0.2°C 25.6°F-3.6°C 78% 5.8 mph SE9.3 kmh SE 8.1 mph13.0 kmh 29.12 in986.1 mb - 0.00 in0.0 mm 0.00 in0.0 mm
03:50 AM 31.3°F-0.4°C 25.3°F-3.7°C 78% 5.8 mph ESE9.3 kmh ESE 5.8 mph9.3 kmh 29.12 in986.1 mb - 0.00 in0.0 mm 0.00 in0.0 mm
03:55 AM 31.3°F-0.4°C 25.2°F-3.8°C 78% 6.9 mph ESE11.1 kmh ESE 6.9 mph11.1 kmh 29.12 in986.1 mb - 0.00 in0.0 mm 0.00 in0.0 mm
04:00 AM 31.1°F-0.5°C 25.0°F-3.9°C 78% 6.9 mph SE11.1 kmh SE 8.1 mph13.0 kmh 29.11 in985.8 mb - 0.00 in0.0 mm 0.00 in0.0 mm
04:10 AM 31.1°F-0.5°C 25.3°F-3.7°C 79% 6.9 mph ESE11.1 kmh ESE 8.1 mph13.0 kmh 29.11 in985.8 mb - 0.00 in0.0 mm 0.00 in0.0 mm
04:15 AM 31.1°F-0.5°C 25.3°F-3.7°C 79% 6.9 mph SE11.1 kmh SE 8.1 mph13.0 kmh 29.11 in985.8 mb - 0.00 in0.0 mm 0.00 in0.0 mm
04:20 AM 30.9°F-0.6°C 25.2°F-3.8°C 79% 6.9 mph SSE11.1 kmh SSE 10.4 mph16.7 kmh 29.11 in985.8 mb - 0.00 in0.0 mm 0.00 in0.0 mm
04:25 AM 30.7°F-0.7°C 25.0°F-3.9°C 79% 5.8 mph ESE9.3 kmh ESE 6.9 mph11.1 kmh 29.11 in985.8 mb - 0.00 in0.0 mm 0.00 in0.0 mm
04:30 AM 30.7°F-0.7°C 25.0°F-3.9°C 79% 4.6 mph SSE7.4 kmh SSE 8.1 mph13.0 kmh 29.11 in985.8 mb - 0.00 in0.0 mm 0.00 in0.0 mm
04:35 AM 30.7°F-0.7°C 25.0°F-3.9°C 79% 5.8 mph ESE9.3 kmh ESE 5.8 mph9.3 kmh 29.11 in985.8 mb - 0.00 in0.0 mm 0.00 in0.0 mm
04:40 AM 30.7°F-0.7°C 25.0°F-3.9°C 79% 5.8 mph ESE9.3 kmh ESE 8.1 mph13.0 kmh 29.11 in985.8 mb - 0.00 in0.0 mm 0.00 in0.0 mm
04:45 AM 30.9°F-0.6°C 25.2°F-3.8°C 79% 4.6 mph SE7.4 kmh SE 5.8 mph9.3 kmh 29.10 in985.4 mb - 0.00 in0.0 mm 0.00 in0.0 mm
04:50 AM 30.9°F-0.6°C 25.2°F-3.8°C 79% 5.8 mph ESE9.3 kmh ESE 6.9 mph11.1 kmh 29.10 in985.4 mb - 0.00 in0.0 mm 0.00 in0.0 mm
04:55 AM 31.1°F-0.5°C 25.3°F-3.7°C 79% 5.8 mph ESE9.3 kmh ESE 8.1 mph13.0 kmh 29.10 in985.4 mb - 0.00 in0.0 mm 0.00 in0.0 mm
05:00 AM 31.3°F-0.4°C 25.5°F-3.6°C 79% 6.9 mph SE11.1 kmh SE 11.5 mph18.5 kmh 29.10 in985.4 mb - 0.00 in0.0 mm 0.00 in0.0 mm
05:10 AM 31.5°F-0.3°C 25.7°F-3.5°C 79% 6.9 mph SE11.1 kmh SE 5.8 mph9.3 kmh 29.10 in985.4 mb - 0.00 in0.0 mm 0.00 in0.0 mm
05:15 AM 31.6°F-0.2°C 25.9°F-3.4°C 79% 6.9 mph ESE11.1 kmh ESE 6.9 mph11.1 kmh 29.08 in984.8 mb - 0.00 in0.0 mm 0.00 in0.0 mm
05:20 AM 31.8°F-0.1°C 26.0°F-3.3°C 79% 5.8 mph SE9.3 kmh SE 5.8 mph9.3 kmh 29.08 in984.8 mb - 0.00 in0.0 mm 0.00 in0.0 mm
05:25 AM 31.8°F-0.1°C 26.0°F-3.3°C 79% 4.6 mph SE7.4 kmh SE 8.1 mph13.0 kmh 29.08 in984.8 mb - 0.00 in0.0 mm 0.00 in0.0 mm
05:30 AM 32.0°F0.0°C 26.2°F-3.2°C 79% 4.6 mph ESE7.4 kmh ESE 4.6 mph7.4 kmh 29.08 in984.8 mb - 0.00 in0.0 mm 0.00 in0.0 mm
05:35 AM 31.8°F-0.1°C 26.0°F-3.3°C 79% 4.6 mph ESE7.4 kmh ESE 5.8 mph9.3 kmh 29.08 in984.8 mb - 0.00 in0.0 mm 0.00 in0.0 mm
05:40 AM 31.8°F-0.1°C 26.0°F-3.3°C 79% 4.6 mph ESE7.4 kmh ESE 4.6 mph7.4 kmh 29.08 in984.8 mb - 0.00 in0.0 mm 0.00 in0.0 mm
05:45 AM 31.8°F-0.1°C 26.0°F-3.3°C 79% 4.6 mph SE7.4 kmh SE 4.6 mph7.4 kmh 29.08 in984.8 mb - 0.00 in0.0 mm 0.00 in0.0 mm
05:50 AM 31.8°F-0.1°C 26.0°F-3.3°C 79% 4.6 mph ESE7.4 kmh ESE 5.8 mph9.3 kmh 29.08 in984.8 mb - 0.00 in0.0 mm 0.00 in0.0 mm
05:55 AM 31.8°F-0.1°C 26.0°F-3.3°C 79% 4.6 mph ESE7.4 kmh ESE 4.6 mph7.4 kmh 29.08 in984.8 mb - 0.00 in0.0 mm 0.00 in0.0 mm
06:00 AM 32.0°F0.0°C 26.2°F-3.2°C 79% 4.6 mph ESE7.4 kmh ESE 4.6 mph7.4 kmh 29.08 in984.8 mb - 0.00 in0.0 mm 0.00 in0.0 mm
06:10 AM 31.8°F-0.1°C 26.0°F-3.3°C 79% 4.6 mph E7.4 kmh E 4.6 mph7.4 kmh 29.08 in984.8 mb - 0.00 in0.0 mm 0.00 in0.0 mm
06:15 AM 31.8°F-0.1°C 26.1°F-3.3°C 79% 4.6 mph ESE7.4 kmh ESE 4.6 mph7.4 kmh 29.08 in984.8 mb - 0.00 in0.0 mm 0.00 in0.0 mm
06:20 AM 32.0°F0.0°C 26.2°F-3.2°C 79% 4.6 mph ESE7.4 kmh ESE 5.8 mph9.3 kmh 29.08 in984.8 mb - 0.00 in0.0 mm 0.00 in0.0 mm
06:25 AM 32.0°F0.0°C 26.2°F-3.2°C 79% 4.6 mph ESE7.4 kmh ESE 4.6 mph7.4 kmh 29.08 in984.8 mb - 0.00 in0.0 mm 0.00 in0.0 mm
06:30 AM 32.0°F0.0°C 26.2°F-3.2°C 79% 5.8 mph ESE9.3 kmh ESE 6.9 mph11.1 kmh 29.08 in984.8 mb - 0.00 in0.0 mm 0.00 in0.0 mm
06:35 AM 32.0°F0.0°C 26.2°F-3.2°C 79% 5.8 mph SE9.3 kmh SE 5.8 mph9.3 kmh 29.08 in984.8 mb - 0.00 in0.0 mm 0.00 in0.0 mm
06:40 AM 32.0°F0.0°C 26.2°F-3.2°C 79% 8.1 mph SE13.0 kmh SE 11.5 mph18.5 kmh 29.08 in984.8 mb - 0.00 in0.0 mm 0.00 in0.0 mm
06:45 AM 32.0°F0.0°C 26.2°F-3.2°C 79% 6.9 mph SE11.1 kmh SE 6.9 mph11.1 kmh 29.08 in984.8 mb - 0.00 in0.0 mm 0.00 in0.0 mm
06:50 AM 32.2°F0.1°C 26.4°F-3.1°C 79% 6.9 mph SE11.1 kmh SE 8.1 mph13.0 kmh 29.08 in984.8 mb - 0.00 in0.0 mm 0.00 in0.0 mm
06:55 AM 32.4°F0.2°C 26.6°F-3.0°C 79% 6.9 mph SSE11.1 kmh SSE 10.4 mph16.7 kmh 29.08 in984.8 mb - 0.00 in0.0 mm 0.00 in0.0 mm
07:00 AM 32.5°F0.3°C 26.7°F-2.9°C 79% 5.8 mph SE9.3 kmh SE 10.4 mph16.7 kmh 29.08 in984.8 mb - 0.00 in0.0 mm 0.00 in0.0 mm
07:10 AM 32.7°F0.4°C 26.9°F-2.8°C 79% 5.8 mph SE9.3 kmh SE 4.6 mph7.4 kmh 29.08 in984.8 mb - 0.00 in0.0 mm 0.00 in0.0 mm
07:15 AM 32.9°F0.5°C 27.1°F-2.7°C 79% 6.9 mph ESE11.1 kmh ESE 6.9 mph11.1 kmh 29.08 in984.8 mb - 0.00 in0.0 mm 0.00 in0.0 mm
07:20 AM 33.2°F0.7°C 27.1°F-2.7°C 78% 6.9 mph SSE11.1 kmh SSE 10.4 mph16.7 kmh 29.08 in984.8 mb - 0.00 in0.0 mm 0.00 in0.0 mm
07:25 AM 33.3°F0.7°C 27.2°F-2.7°C 78% 6.9 mph ESE11.1 kmh ESE 8.1 mph13.0 kmh 29.08 in984.8 mb - 0.00 in0.0 mm 0.00 in0.0 mm
07:30 AM 33.4°F0.8°C 27.3°F-2.6°C 78% 8.1 mph SE13.0 kmh SE 8.1 mph13.0 kmh 29.08 in984.8 mb - 0.00 in0.0 mm 0.00 in0.0 mm
07:35 AM 33.6°F0.9°C 27.5°F-2.5°C 78% 5.8 mph SSE9.3 kmh SSE 6.9 mph11.1 kmh 29.08 in984.8 mb - 0.00 in0.0 mm 0.00 in0.0 mm
07:40 AM 33.6°F0.9°C 27.5°F-2.5°C 78% 5.8 mph ESE9.3 kmh ESE 5.8 mph9.3 kmh 29.08 in984.8 mb - 0.00 in0.0 mm 0.00 in0.0 mm
07:45 AM 33.6°F0.9°C 27.5°F-2.5°C 78% 5.8 mph SE9.3 kmh SE 5.8 mph9.3 kmh 29.08 in984.8 mb - 0.00 in0.0 mm 0.00 in0.0 mm
07:50 AM 33.8°F1.0°C 27.7°F-2.4°C 78% 5.8 mph SE9.3 kmh SE 5.8 mph9.3 kmh 29.08 in984.8 mb - 0.00 in0.0 mm 0.00 in0.0 mm
07:55 AM 34.2°F1.2°C 28.0°F-2.2°C 78% 5.8 mph SSE9.3 kmh SSE 8.1 mph13.0 kmh 29.08 in984.8 mb - 0.00 in0.0 mm 0.00 in0.0 mm
08:00 AM 34.2°F1.2°C 27.4°F-2.6°C 76% 5.8 mph SE9.3 kmh SE 8.1 mph13.0 kmh 29.08 in984.8 mb - 0.00 in0.0 mm 0.00 in0.0 mm
08:10 AM 34.5°F1.4°C 27.7°F-2.4°C 76% 6.9 mph SE11.1 kmh SE 6.9 mph11.1 kmh 29.08 in984.8 mb - 0.00 in0.0 mm 0.00 in0.0 mm
08:15 AM 34.5°F1.4°C 27.7°F-2.4°C 76% 6.9 mph S11.1 kmh S 6.9 mph11.1 kmh 29.08 in984.8 mb - 0.00 in0.0 mm 0.00 in0.0 mm
08:20 AM 34.7°F1.5°C 27.9°F-2.3°C 76% 5.8 mph SE9.3 kmh SE 9.2 mph14.8 kmh 29.08 in984.8 mb - 0.00 in0.0 mm 0.00 in0.0 mm
08:25 AM 34.7°F1.5°C 27.9°F-2.3°C 76% 4.6 mph SE7.4 kmh SE 6.9 mph11.1 kmh 29.08 in984.8 mb - 0.00 in0.0 mm 0.00 in0.0 mm
08:30 AM 34.7°F1.5°C 27.9°F-2.3°C 76% 5.8 mph SSE9.3 kmh SSE 8.1 mph13.0 kmh 29.08 in984.8 mb - 0.00 in0.0 mm 0.00 in0.0 mm
08:35 AM 34.7°F1.5°C 27.9°F-2.3°C 76% 6.9 mph ESE11.1 kmh ESE 8.1 mph13.0 kmh 29.08 in984.8 mb - 0.00 in0.0 mm 0.00 in0.0 mm
08:40 AM 34.7°F1.5°C 27.9°F-2.3°C 76% 6.9 mph SE11.1 kmh SE 6.9 mph11.1 kmh 29.08 in984.8 mb - 0.00 in0.0 mm 0.00 in0.0 mm
08:45 AM 34.7°F1.5°C 27.9°F-2.3°C 76% 9.2 mph SSE14.8 kmh SSE 11.5 mph18.5 kmh 29.08 in984.8 mb - 0.00 in0.0 mm 0.00 in0.0 mm
08:50 AM 34.7°F1.5°C 27.9°F-2.3°C 76% 5.8 mph S9.3 kmh S 6.9 mph11.1 kmh 29.08 in984.8 mb - 0.00 in0.0 mm 0.00 in0.0 mm
08:55 AM 34.7°F1.5°C 27.9°F-2.3°C 76% 6.9 mph S11.1 kmh S 8.1 mph13.0 kmh 29.08 in984.8 mb - 0.00 in0.0 mm 0.00 in0.0 mm
09:00 AM 34.7°F1.5°C 27.9°F-2.3°C 76% 8.1 mph SE13.0 kmh SE 12.7 mph20.4 kmh 29.08 in984.8 mb - 0.00 in0.0 mm 0.00 in0.0 mm
09:10 AM 34.7°F1.5°C 27.9°F-2.3°C 76% 4.6 mph SSE7.4 kmh SSE 6.9 mph11.1 kmh 29.08 in984.8 mb - 0.00 in0.0 mm 0.00 in0.0 mm
09:15 AM 34.7°F1.5°C 27.9°F-2.3°C 76% 5.8 mph SE9.3 kmh SE 6.9 mph11.1 kmh 29.08 in984.8 mb - 0.00 in0.0 mm 0.00 in0.0 mm
09:20 AM 34.7°F1.5°C 27.9°F-2.3°C 76% 5.8 mph S9.3 kmh S 3.5 mph5.6 kmh 29.08 in984.8 mb - 0.00 in0.0 mm 0.00 in0.0 mm
09:25 AM 34.7°F1.5°C 27.9°F-2.3°C 76% 5.8 mph SE9.3 kmh SE 4.6 mph7.4 kmh 29.08 in984.8 mb - 0.00 in0.0 mm 0.00 in0.0 mm
09:30 AM 34.7°F1.5°C 27.9°F-2.3°C 76% 4.6 mph SSE7.4 kmh SSE 9.2 mph14.8 kmh 29.07 in984.4 mb - 0.00 in0.0 mm 0.00 in0.0 mm
09:35 AM 34.7°F1.5°C 27.9°F-2.3°C 76% 6.9 mph SSW11.1 kmh SSW 10.4 mph16.7 kmh 29.07 in984.4 mb - 0.00 in0.0 mm 0.00 in0.0 mm
09:40 AM 34.7°F1.5°C 27.9°F-2.3°C 76% 6.9 mph S11.1 kmh S 6.9 mph11.1 kmh 29.07 in984.4 mb - 0.00 in0.0 mm 0.00 in0.0 mm
09:45 AM 34.7°F1.5°C 27.9°F-2.3°C 76% 6.9 mph SSW11.1 kmh SSW 13.8 mph22.2 kmh 29.08 in984.8 mb - 0.00 in0.0 mm 0.00 in0.0 mm
09:50 AM 34.7°F1.5°C 27.9°F-2.3°C 76% 5.8 mph SSW9.3 kmh SSW 5.8 mph9.3 kmh 29.08 in984.8 mb - 0.00 in0.0 mm 0.00 in0.0 mm
09:55 AM 34.7°F1.5°C 27.9°F-2.3°C 76% 6.9 mph SSW11.1 kmh SSW 12.7 mph20.4 kmh 29.08 in984.8 mb - 0.00 in0.0 mm 0.00 in0.0 mm
10:00 AM 34.7°F1.5°C 27.9°F-2.3°C 76% 6.9 mph SW11.1 kmh SW 9.2 mph14.8 kmh 29.08 in984.8 mb - 0.00 in0.0 mm 0.00 in0.0 mm
10:10 AM 34.7°F1.5°C 27.9°F-2.3°C 76% 6.9 mph S11.1 kmh S 8.1 mph13.0 kmh 29.08 in984.8 mb - 0.00 in0.0 mm 0.00 in0.0 mm
10:15 AM 34.7°F1.5°C 27.9°F-2.3°C 76% 6.9 mph S11.1 kmh S 5.8 mph9.3 kmh 29.09 in985.1 mb - 0.00 in0.0 mm 0.00 in0.0 mm
10:20 AM 34.7°F1.5°C 27.9°F-2.3°C 76% 10.4 mph SSW16.7 kmh SSW 12.7 mph20.4 kmh 29.09 in985.1 mb - 0.00 in0.0 mm 0.00 in0.0 mm
10:25 AM 34.7°F1.5°C 27.9°F-2.3°C 76% 5.8 mph SSW9.3 kmh SSW 5.8 mph9.3 kmh 29.09 in985.1 mb - 0.01 in0.3 mm 0.01 in0.3 mm
10:30 AM 34.7°F1.5°C 27.9°F-2.3°C 76% 6.9 mph S11.1 kmh S 10.4 mph16.7 kmh 29.08 in984.8 mb - 0.01 in0.3 mm 0.01 in0.3 mm
10:35 AM 37.0°F2.8°C 29.5°F-1.4°C 74% 6.9 mph S11.1 kmh S 6.9 mph11.1 kmh 29.08 in984.8 mb - 0.01 in0.3 mm 0.01 in0.3 mm
10:40 AM 37.0°F2.8°C 29.5°F-1.4°C 74% 4.6 mph SSW7.4 kmh SSW 5.8 mph9.3 kmh 29.08 in984.8 mb - 0.01 in0.3 mm 0.01 in0.3 mm
10:45 AM 37.0°F2.8°C 29.5°F-1.4°C 74% 5.8 mph S9.3 kmh S 5.8 mph9.3 kmh 29.08 in984.8 mb - 0.01 in0.3 mm 0.01 in0.3 mm
10:50 AM 37.0°F2.8°C 29.5°F-1.4°C 74% 2.3 mph S3.7 kmh S 3.5 mph5.6 kmh 29.08 in984.8 mb - 0.01 in0.3 mm 0.01 in0.3 mm
10:55 AM 37.0°F2.8°C 29.5°F-1.4°C 74% 3.5 mph SSE5.6 kmh SSE 3.5 mph5.6 kmh 29.08 in984.8 mb - 0.01 in0.3 mm 0.01 in0.3 mm
11:00 AM 37.0°F2.8°C 29.5°F-1.4°C 74% 1.2 mph SE1.9 kmh SE 1.2 mph1.9 kmh 29.07 in984.4 mb - 0.01 in0.3 mm 0.01 in0.3 mm
11:10 AM 37.0°F2.8°C 29.5°F-1.4°C 74% 2.3 mph ESE3.7 kmh ESE 3.5 mph5.6 kmh 29.07 in984.4 mb - 0.01 in0.3 mm 0.01 in0.3 mm
11:15 AM 37.0°F2.8°C 29.5°F-1.4°C 74% 3.5 mph SE5.6 kmh SE 3.5 mph5.6 kmh 29.07 in984.4 mb - 0.01 in0.3 mm 0.01 in0.3 mm
11:20 AM 37.0°F2.8°C 29.5°F-1.4°C 74% 3.5 mph ESE5.6 kmh ESE 4.6 mph7.4 kmh 29.07 in984.4 mb - 0.01 in0.3 mm 0.01 in0.3 mm
11:25 AM 37.0°F2.8°C 29.5°F-1.4°C 74% 3.5 mph E5.6 kmh E 5.8 mph9.3 kmh 29.07 in984.4 mb - 0.00 in0.0 mm 0.01 in0.3 mm
11:30 AM 37.0°F2.8°C 29.5°F-1.4°C 74% 5.8 mph SE9.3 kmh SE 6.9 mph11.1 kmh 29.07 in984.4 mb - 0.00 in0.0 mm 0.01 in0.3 mm
11:35 AM 37.0°F2.8°C 29.5°F-1.4°C 74% 5.8 mph S9.3 kmh S 4.6 mph7.4 kmh 29.07 in984.4 mb - 0.00 in0.0 mm 0.01 in0.3 mm
11:40 AM 37.0°F2.8°C 29.5°F-1.4°C 74% 2.3 mph SSW3.7 kmh SSW 3.5 mph5.6 kmh 29.07 in984.4 mb - 0.01 in0.3 mm 0.02 in0.5 mm
11:45 AM 37.0°F2.8°C 29.5°F-1.4°C 74% 3.5 mph SE5.6 kmh SE 3.5 mph5.6 kmh 29.07 in984.4 mb - 0.01 in0.3 mm 0.02 in0.5 mm
11:50 AM 37.0°F2.8°C 29.5°F-1.4°C 74% 4.6 mph SSW7.4 kmh SSW 3.5 mph5.6 kmh 29.07 in984.4 mb - 0.01 in0.3 mm 0.02 in0.5 mm
11:55 AM 37.0°F2.8°C 29.5°F-1.4°C 74% 3.5 mph ESE5.6 kmh ESE 5.8 mph9.3 kmh 29.07 in984.4 mb - 0.01 in0.3 mm 0.02 in0.5 mm
12:00 PM 37.0°F2.8°C 29.5°F-1.4°C 74% 3.5 mph S5.6 kmh S 3.5 mph5.6 kmh 29.06 in984.1 mb - 0.01 in0.3 mm 0.02 in0.5 mm
12:10 PM 37.0°F2.8°C 29.5°F-1.4°C 74% 2.3 mph SE3.7 kmh SE 3.5 mph5.6 kmh 29.06 in984.1 mb - 0.01 in0.3 mm 0.02 in0.5 mm
12:15 PM 37.0°F2.8°C 29.5°F-1.4°C 74% 1.2 mph SSW1.9 kmh SSW 1.2 mph1.9 kmh 29.07 in984.4 mb - 0.01 in0.3 mm 0.02 in0.5 mm
12:20 PM 37.0°F2.8°C 29.5°F-1.4°C 74% 2.3 mph W3.7 kmh W 3.5 mph5.6 kmh 29.07 in984.4 mb - 0.01 in0.3 mm 0.02 in0.5 mm
12:25 PM 37.0°F2.8°C 29.5°F-1.4°C 74% 2.3 mph WSW3.7 kmh WSW 2.3 mph3.7 kmh 29.07 in984.4 mb - 0.01 in0.3 mm 0.02 in0.5 mm
12:30 PM 37.0°F2.8°C 29.5°F-1.4°C 74% 3.5 mph WNW5.6 kmh WNW 3.5 mph5.6 kmh 29.07 in984.4 mb - 0.13 in3.3 mm 0.14 in3.6 mm
12:35 PM 37.0°F2.8°C 29.5°F-1.4°C 74% Calm Calm 3.5 mph5.6 kmh 29.07 in984.4 mb - 0.14 in3.6 mm 0.15 in3.8 mm
12:40 PM 37.0°F2.8°C 29.5°F-1.4°C 74% 2.3 mph WNW3.7 kmh WNW 2.3 mph3.7 kmh 29.07 in984.4 mb - 0.13 in3.3 mm 0.15 in3.8 mm
12:45 PM 37.0°F2.8°C 29.5°F-1.4°C 74% 2.3 mph WNW3.7 kmh WNW 3.5 mph5.6 kmh 29.07 in984.4 mb - 0.13 in3.3 mm 0.15 in3.8 mm
12:50 PM 37.0°F2.8°C 29.5°F-1.4°C 74% 2.3 mph NW3.7 kmh NW 2.3 mph3.7 kmh 29.07 in984.4 mb - 0.13 in3.3 mm 0.15 in3.8 mm
12:55 PM 37.0°F2.8°C 29.5°F-1.4°C 74% 2.3 mph NW3.7 kmh NW 2.3 mph3.7 kmh 29.07 in984.4 mb - 0.13 in3.3 mm 0.15 in3.8 mm
01:00 PM 37.0°F2.8°C 29.5°F-1.4°C 74% 2.3 mph NW3.7 kmh NW 2.3 mph3.7 kmh 29.07 in984.4 mb - 0.13 in3.3 mm 0.15 in3.8 mm
01:10 PM 37.0°F2.8°C 29.5°F-1.4°C 74% 2.3 mph WNW3.7 kmh WNW 3.5 mph5.6 kmh 29.07 in984.4 mb - 0.13 in3.3 mm 0.15 in3.8 mm
01:15 PM 37.0°F2.8°C 29.5°F-1.4°C 74% 1.2 mph WNW1.9 kmh WNW 2.3 mph3.7 kmh 29.08 in984.8 mb - 0.13 in3.3 mm 0.15 in3.8 mm
01:20 PM 37.0°F2.8°C 29.5°F-1.4°C 74% 2.3 mph WNW3.7 kmh WNW 2.3 mph3.7 kmh 29.08 in984.8 mb - 0.14 in3.6 mm 0.16 in4.1 mm
01:25 PM 37.0°F2.8°C 29.5°F-1.4°C 74% 1.2 mph WNW1.9 kmh WNW 1.2 mph1.9 kmh 29.08 in984.8 mb - 0.15 in3.8 mm 0.17 in4.3 mm
01:30 PM 37.0°F2.8°C 29.5°F-1.4°C 74% 2.3 mph WNW3.7 kmh WNW 2.3 mph3.7 kmh 29.08 in984.8 mb - 0.04 in1.0 mm 0.18 in4.6 mm
01:35 PM 37.0°F2.8°C 29.5°F-1.4°C 74% 3.5 mph NNW5.6 kmh NNW 3.5 mph5.6 kmh 29.08 in984.8 mb - 0.04 in1.0 mm 0.19 in4.8 mm
01:55 PM 37.0°F2.8°C 29.5°F-1.4°C 74% 3.5 mph NNW5.6 kmh NNW 4.6 mph7.4 kmh 29.08 in984.8 mb - 0.05 in1.3 mm 0.20 in5.1 mm
02:00 PM 37.0°F2.8°C 29.5°F-1.4°C 74% 2.3 mph N3.7 kmh N 2.3 mph3.7 kmh 29.07 in984.4 mb - 0.05 in1.3 mm 0.20 in5.1 mm
02:10 PM 37.0°F2.8°C 29.5°F-1.4°C 74% 2.3 mph NNE3.7 kmh NNE 3.5 mph5.6 kmh 29.07 in984.4 mb - 0.05 in1.3 mm 0.20 in5.1 mm
02:15 PM 37.0°F2.8°C 29.5°F-1.4°C 74% 2.3 mph NE3.7 kmh NE 3.5 mph5.6 kmh 29.07 in984.4 mb - 0.05 in1.3 mm 0.20 in5.1 mm
02:20 PM 37.0°F2.8°C 29.5°F-1.4°C 74% 2.3 mph NE3.7 kmh NE 3.5 mph5.6 kmh 29.07 in984.4 mb - 0.05 in1.3 mm 0.20 in5.1 mm
02:25 PM 37.0°F2.8°C 29.5°F-1.4°C 74% 2.3 mph ENE3.7 kmh ENE 3.5 mph5.6 kmh 29.07 in984.4 mb - 0.06 in1.5 mm 0.21 in5.3 mm
02:30 PM 37.0°F2.8°C 29.5°F-1.4°C 74% 1.2 mph ENE1.9 kmh ENE 2.3 mph3.7 kmh 29.07 in984.4 mb - 0.06 in1.5 mm 0.21 in5.3 mm
02:35 PM 37.0°F2.8°C 29.5°F-1.4°C 74% Calm Calm -- 29.07 in984.4 mb - 0.05 in1.3 mm 0.21 in5.3 mm
02:40 PM 37.0°F2.8°C 29.5°F-1.4°C 74% 2.3 mph ENE3.7 kmh ENE 3.5 mph5.6 kmh 29.07 in984.4 mb - 0.04 in1.0 mm 0.21 in5.3 mm
02:45 PM 37.0°F2.8°C 29.5°F-1.4°C 74% 2.3 mph ENE3.7 kmh ENE 3.5 mph5.6 kmh 29.08 in984.8 mb - 0.03 in0.8 mm 0.21 in5.3 mm
02:50 PM 37.0°F2.8°C 29.5°F-1.4°C 74% 1.2 mph NE1.9 kmh NE 1.2 mph1.9 kmh 29.08 in984.8 mb - 0.02 in0.5 mm 0.21 in5.3 mm
02:55 PM 37.0°F2.8°C 29.5°F-1.4°C 74% 2.3 mph NNE3.7 kmh NNE 3.5 mph5.6 kmh 29.08 in984.8 mb - 0.01 in0.3 mm 0.21 in5.3 mm
03:00 PM 37.0°F2.8°C 29.5°F-1.4°C 74% 3.5 mph NNE5.6 kmh NNE 4.6 mph7.4 kmh 29.07 in984.4 mb - 0.01 in0.3 mm 0.21 in5.3 mm
03:10 PM 37.0°F2.8°C 29.5°F-1.4°C 74% 1.2 mph NNE1.9 kmh NNE 2.3 mph3.7 kmh 29.07 in984.4 mb - 0.01 in0.3 mm 0.21 in5.3 mm
03:15 PM 37.0°F2.8°C 29.5°F-1.4°C 74% 2.3 mph NE3.7 kmh NE 2.3 mph3.7 kmh 29.07 in984.4 mb - 0.01 in0.3 mm 0.21 in5.3 mm
03:20 PM 37.0°F2.8°C 29.5°F-1.4°C 74% 1.2 mph NNW1.9 kmh NNW 1.2 mph1.9 kmh 29.07 in984.4 mb - 0.01 in0.3 mm 0.21 in5.3 mm
03:25 PM 37.0°F2.8°C 29.5°F-1.4°C 74% 1.2 mph NNW1.9 kmh NNW 2.3 mph3.7 kmh 29.07 in984.4 mb - 0.00 in0.0 mm 0.21 in5.3 mm
03:30 PM 37.0°F2.8°C 29.5°F-1.4°C 74% 1.2 mph NNW1.9 kmh NNW 2.3 mph3.7 kmh 29.08 in984.8 mb - 0.00 in0.0 mm 0.21 in5.3 mm
03:35 PM 37.0°F2.8°C 29.5°F-1.4°C 74% 3.5 mph NNE5.6 kmh NNE 3.5 mph5.6 kmh 29.08 in984.8 mb - 0.00 in0.0 mm 0.21 in5.3 mm
03:40 PM 37.0°F2.8°C 29.5°F-1.4°C 74% 1.2 mph N1.9 kmh N 2.3 mph3.7 kmh 29.08 in984.8 mb - 0.00 in0.0 mm 0.21 in5.3 mm
03:45 PM 37.0°F2.8°C 29.5°F-1.4°C 74% 2.3 mph NNW3.7 kmh NNW 2.3 mph3.7 kmh 29.07 in984.4 mb - 0.00 in0.0 mm 0.21 in5.3 mm
03:50 PM 37.0°F2.8°C 29.5°F-1.4°C 74% 2.3 mph NNW3.7 kmh NNW 3.5 mph5.6 kmh 29.07 in984.4 mb - 0.00 in0.0 mm 0.21 in5.3 mm
03:55 PM 37.0°F2.8°C 29.5°F-1.4°C 74% 2.3 mph NNW3.7 kmh NNW 3.5 mph5.6 kmh 29.07 in984.4 mb - 0.00 in0.0 mm 0.21 in5.3 mm
04:00 PM 37.0°F2.8°C 29.5°F-1.4°C 74% 2.3 mph NNE3.7 kmh NNE 3.5 mph5.6 kmh 29.07 in984.4 mb - 0.01 in0.3 mm 0.22 in5.6 mm
04:10 PM 37.0°F2.8°C 29.5°F-1.4°C 74% 3.5 mph NW5.6 kmh NW 3.5 mph5.6 kmh 29.07 in984.4 mb - 0.01 in0.3 mm 0.22 in5.6 mm
04:15 PM 37.0°F2.8°C 29.5°F-1.4°C 74% 3.5 mph WNW5.6 kmh WNW 3.5 mph5.6 kmh 29.07 in984.4 mb - 0.01 in0.3 mm 0.22 in5.6 mm
04:20 PM 37.0°F2.8°C 29.5°F-1.4°C 74% 2.3 mph NNW3.7 kmh NNW 3.5 mph5.6 kmh 29.07 in984.4 mb - 0.01 in0.3 mm 0.22 in5.6 mm
04:25 PM 37.0°F2.8°C 29.5°F-1.4°C 74% 2.3 mph NW3.7 kmh NW 3.5 mph5.6 kmh 29.07 in984.4 mb - 0.01 in0.3 mm 0.22 in5.6 mm
04:30 PM 34.9°F1.6°C 32.5°F0.3°C 91% 2.3 mph NW3.7 kmh NW 3.5 mph5.6 kmh 29.09 in985.1 mb - 0.01 in0.3 mm 0.22 in5.6 mm
04:35 PM 34.9°F1.6°C 32.5°F0.3°C 91% 3.5 mph NW5.6 kmh NW 3.5 mph5.6 kmh 29.09 in985.1 mb - 0.01 in0.3 mm 0.22 in5.6 mm
04:40 PM 34.9°F1.6°C 32.5°F0.3°C 91% 3.5 mph NW5.6 kmh NW 4.6 mph7.4 kmh 29.09 in985.1 mb - 0.01 in0.3 mm 0.22 in5.6 mm
04:45 PM 34.7°F1.5°C 32.3°F0.2°C 91% 3.5 mph NNW5.6 kmh NNW 5.8 mph9.3 kmh 29.09 in985.1 mb - 0.01 in0.3 mm 0.22 in5.6 mm
04:50 PM 34.2°F1.2°C 32.1°F0.1°C 92% 5.8 mph NW9.3 kmh NW 6.9 mph11.1 kmh 29.09 in985.1 mb - 0.01 in0.3 mm 0.22 in5.6 mm
04:55 PM 34.0°F1.1°C 32.4°F0.2°C 94% 4.6 mph NW7.4 kmh NW 4.6 mph7.4 kmh 29.09 in985.1 mb - 0.01 in0.3 mm 0.22 in5.6 mm
05:00 PM 33.8°F1.0°C 32.3°F0.2°C 94% 4.6 mph NW7.4 kmh NW 3.5 mph5.6 kmh 29.10 in985.4 mb - 0.00 in0.0 mm 0.22 in5.6 mm
05:10 PM 33.8°F1.0°C 32.3°F0.2°C 94% 4.6 mph NNW7.4 kmh NNW 4.6 mph7.4 kmh 29.10 in985.4 mb - 0.00 in0.0 mm 0.22 in5.6 mm
05:15 PM 33.6°F0.9°C 32.1°F0.1°C 94% 3.5 mph NNW5.6 kmh NNW 3.5 mph5.6 kmh 29.10 in985.4 mb - 0.00 in0.0 mm 0.22 in5.6 mm
05:20 PM 33.6°F0.9°C 32.1°F0.1°C 94% 4.6 mph NNW7.4 kmh NNW 4.6 mph7.4 kmh 29.10 in985.4 mb - 0.00 in0.0 mm 0.22 in5.6 mm
05:25 PM 33.5°F0.8°C 32.0°F0.0°C 94% 3.5 mph N5.6 kmh N 6.9 mph11.1 kmh 29.10 in985.4 mb - 0.00 in0.0 mm 0.22 in5.6 mm
05:30 PM 33.4°F0.8°C 32.2°F0.1°C 95% 4.6 mph N7.4 kmh N 3.5 mph5.6 kmh 29.10 in985.4 mb - 0.00 in0.0 mm 0.22 in5.6 mm
05:35 PM 33.4°F0.8°C 32.2°F0.1°C 95% 4.6 mph NNW7.4 kmh NNW 5.8 mph9.3 kmh 29.10 in985.4 mb - 0.00 in0.0 mm 0.22 in5.6 mm
05:40 PM 33.4°F0.8°C 32.2°F0.1°C 95% 3.5 mph NNW5.6 kmh NNW 4.6 mph7.4 kmh 29.10 in985.4 mb - 0.00 in0.0 mm 0.22 in5.6 mm
05:45 PM 33.3°F0.7°C 32.0°F0.0°C 95% 4.6 mph N7.4 kmh N 5.8 mph9.3 kmh 29.10 in985.4 mb - 0.00 in0.0 mm 0.22 in5.6 mm
05:50 PM 33.3°F0.7°C 32.0°F0.0°C 95% 4.6 mph NNW7.4 kmh NNW 5.8 mph9.3 kmh 29.10 in985.4 mb - 0.00 in0.0 mm 0.22 in5.6 mm
05:55 PM 33.3°F0.7°C 32.0°F0.0°C 95% 3.5 mph N5.6 kmh N 4.6 mph7.4 kmh 29.10 in985.4 mb - 0.00 in0.0 mm 0.22 in5.6 mm
06:00 PM 33.2°F0.7°C 31.9°F-0.1°C 95% 3.5 mph N5.6 kmh N 3.5 mph5.6 kmh 29.10 in985.4 mb - 0.00 in0.0 mm 0.22 in5.6 mm
06:10 PM 33.3°F0.7°C 32.0°F0.0°C 95% 3.5 mph N5.6 kmh N 4.6 mph7.4 kmh 29.10 in985.4 mb - 0.00 in0.0 mm 0.22 in5.6 mm
06:15 PM 33.1°F0.6°C 31.8°F-0.1°C 95% 3.5 mph NW5.6 kmh NW 3.5 mph5.6 kmh 29.11 in985.8 mb - 0.00 in0.0 mm 0.22 in5.6 mm
06:20 PM 33.1°F0.6°C 31.8°F-0.1°C 95% 3.5 mph NW5.6 kmh NW 4.6 mph7.4 kmh 29.11 in985.8 mb - 0.00 in0.0 mm 0.22 in5.6 mm
06:25 PM 33.1°F0.6°C 31.8°F-0.1°C 95% 3.5 mph NNW5.6 kmh NNW 4.6 mph7.4 kmh 29.11 in985.8 mb - 0.00 in0.0 mm 0.22 in5.6 mm
06:30 PM 33.0°F0.6°C 31.8°F-0.1°C 95% 3.5 mph NW5.6 kmh NW 3.5 mph5.6 kmh 29.11 in985.8 mb - 0.00 in0.0 mm 0.22 in5.6 mm
06:35 PM 32.9°F0.5°C 31.6°F-0.2°C 95% 3.5 mph NW5.6 kmh NW 6.9 mph11.1 kmh 29.11 in985.8 mb - 0.00 in0.0 mm 0.22 in5.6 mm
06:40 PM 32.9°F0.5°C 31.6°F-0.2°C 95% 3.5 mph NNW5.6 kmh NNW 3.5 mph5.6 kmh 29.11 in985.8 mb - 0.00 in0.0 mm 0.22 in5.6 mm
06:45 PM 32.9°F0.5°C 31.6°F-0.2°C 95% 4.6 mph N7.4 kmh N 4.6 mph7.4 kmh 29.13 in986.5 mb - 0.00 in0.0 mm 0.22 in5.6 mm
06:50 PM 32.9°F0.5°C 31.6°F-0.2°C 95% 4.6 mph NNW7.4 kmh NNW 4.6 mph7.4 kmh 29.13 in986.5 mb - 0.00 in0.0 mm 0.22 in5.6 mm
06:55 PM 32.9°F0.5°C 31.6°F-0.2°C 95% 4.6 mph NNW7.4 kmh NNW 6.9 mph11.1 kmh 29.13 in986.5 mb - 0.00 in0.0 mm 0.22 in5.6 mm
07:00 PM 32.9°F0.5°C 31.6°F-0.2°C 95% 5.8 mph NW9.3 kmh NW 6.9 mph11.1 kmh 29.13 in986.5 mb - 0.00 in0.0 mm 0.22 in5.6 mm
07:10 PM 32.9°F0.5°C 31.6°F-0.2°C 95% 4.6 mph NNW7.4 kmh NNW 5.8 mph9.3 kmh 29.13 in986.5 mb - 0.00 in0.0 mm 0.22 in5.6 mm
07:15 PM 32.9°F0.5°C 31.6°F-0.2°C 95% 3.5 mph NW5.6 kmh NW 3.5 mph5.6 kmh 29.14 in986.8 mb - 0.00 in0.0 mm 0.22 in5.6 mm
07:20 PM 32.9°F0.5°C 31.6°F-0.2°C 95% 3.5 mph NNW5.6 kmh NNW 4.6 mph7.4 kmh 29.14 in986.8 mb - 0.00 in0.0 mm 0.22 in5.6 mm
07:25 PM 32.9°F0.5°C 31.6°F-0.2°C 95% 4.6 mph NNW7.4 kmh NNW 5.8 mph9.3 kmh 29.14 in986.8 mb - 0.00 in0.0 mm 0.22 in5.6 mm
07:30 PM 32.9°F0.5°C 31.6°F-0.2°C 95% 5.8 mph NNW9.3 kmh NNW 4.6 mph7.4 kmh 29.15 in987.1 mb - 0.00 in0.0 mm 0.22 in5.6 mm
07:35 PM 32.9°F0.5°C 31.6°F-0.2°C 95% 4.6 mph NW7.4 kmh NW 4.6 mph7.4 kmh 29.15 in987.1 mb - 0.00 in0.0 mm 0.22 in5.6 mm
07:40 PM 32.9°F0.5°C 31.6°F-0.2°C 95% 5.8 mph N9.3 kmh N 6.9 mph11.1 kmh 29.15 in987.1 mb - 0.00 in0.0 mm 0.22 in5.6 mm
07:45 PM 33.1°F0.6°C 31.8°F-0.1°C 95% 5.8 mph NW9.3 kmh NW 5.8 mph9.3 kmh 29.15 in987.1 mb - 0.00 in0.0 mm 0.22 in5.6 mm
07:50 PM 33.0°F0.6°C 31.7°F-0.2°C 95% 5.8 mph NNW9.3 kmh NNW 5.8 mph9.3 kmh 29.15 in987.1 mb - 0.00 in0.0 mm 0.22 in5.6 mm
07:55 PM 33.1°F0.6°C 31.8°F-0.1°C 95% 3.5 mph N5.6 kmh N 4.6 mph7.4 kmh 29.15 in987.1 mb - 0.00 in0.0 mm 0.22 in5.6 mm
08:00 PM 33.1°F0.6°C 31.8°F-0.1°C 95% 3.5 mph N5.6 kmh N 4.6 mph7.4 kmh 29.15 in987.1 mb - 0.00 in0.0 mm 0.22 in5.6 mm
08:10 PM 32.9°F0.5°C 31.6°F-0.2°C 95% 3.5 mph N5.6 kmh N 4.6 mph7.4 kmh 29.15 in987.1 mb - 0.00 in0.0 mm 0.22 in5.6 mm
08:15 PM 32.9°F0.5°C 31.6°F-0.2°C 95% 3.5 mph NNW5.6 kmh NNW 4.6 mph7.4 kmh 29.15 in987.1 mb - 0.00 in0.0 mm 0.22 in5.6 mm
08:20 PM 32.9°F0.5°C 31.6°F-0.2°C 95% 3.5 mph N5.6 kmh N 4.6 mph7.4 kmh 29.15 in987.1 mb - 0.00 in0.0 mm 0.22 in5.6 mm
08:25 PM 32.9°F0.5°C 31.6°F-0.2°C 95% 4.6 mph NNW7.4 kmh NNW 5.8 mph9.3 kmh 29.15 in987.1 mb - 0.00 in0.0 mm 0.22 in5.6 mm
08:30 PM 32.9°F0.5°C 31.6°F-0.2°C 95% 3.5 mph NNW5.6 kmh NNW 4.6 mph7.4 kmh 29.16 in987.5 mb - 0.00 in0.0 mm 0.22 in5.6 mm
08:35 PM 32.7°F0.4°C 31.4°F-0.3°C 95% 2.3 mph NW3.7 kmh NW 3.5 mph5.6 kmh 29.16 in987.5 mb - 0.00 in0.0 mm 0.22 in5.6 mm
08:40 PM 32.7°F0.4°C 31.4°F-0.3°C 95% 4.6 mph NNW7.4 kmh NNW 5.8 mph9.3 kmh 29.16 in987.5 mb - 0.00 in0.0 mm 0.22 in5.6 mm
08:45 PM 32.7°F0.4°C 31.4°F-0.3°C 95% 5.8 mph NNW9.3 kmh NNW 5.8 mph9.3 kmh 29.16 in987.5 mb - 0.00 in0.0 mm 0.22 in5.6 mm
08:50 PM 32.7°F0.4°C 31.4°F-0.3°C 95% 5.8 mph NW9.3 kmh NW 5.8 mph9.3 kmh 29.16 in987.5 mb - 0.00 in0.0 mm 0.22 in5.6 mm
08:55 PM 32.9°F0.5°C 31.6°F-0.2°C 95% 5.8 mph NNW9.3 kmh NNW 5.8 mph9.3 kmh 29.16 in987.5 mb - 0.00 in0.0 mm 0.22 in5.6 mm
09:00 PM 32.7°F0.4°C 31.4°F-0.3°C 95% 3.5 mph NNW5.6 kmh NNW 3.5 mph5.6 kmh 29.17 in987.8 mb - 0.00 in0.0 mm 0.22 in5.6 mm
09:10 PM 32.7°F0.4°C 31.4°F-0.3°C 95% 2.3 mph NE3.7 kmh NE 2.3 mph3.7 kmh 29.17 in987.8 mb - 0.00 in0.0 mm 0.22 in5.6 mm
09:15 PM 32.6°F0.3°C 31.3°F-0.4°C 95% 1.2 mph NW1.9 kmh NW 2.3 mph3.7 kmh 29.18 in988.1 mb - 0.00 in0.0 mm 0.22 in5.6 mm
09:20 PM 32.5°F0.3°C 31.0°F-0.6°C 94% Calm Calm -- 29.18 in988.1 mb - 0.00 in0.0 mm 0.22 in5.6 mm
09:25 PM 32.5°F0.3°C 31.0°F-0.6°C 94% 2.3 mph W3.7 kmh W 3.5 mph5.6 kmh 29.18 in988.1 mb - 0.00 in0.0 mm 0.22 in5.6 mm
09:30 PM 32.5°F0.3°C 31.0°F-0.6°C 94% 2.3 mph WNW3.7 kmh WNW 2.3 mph3.7 kmh 29.19 in988.5 mb - 0.00 in0.0 mm 0.22 in5.6 mm
09:35 PM 32.4°F0.2°C 30.8°F-0.7°C 94% 3.5 mph NNW5.6 kmh NNW 3.5 mph5.6 kmh 29.19 in988.5 mb - 0.00 in0.0 mm 0.22 in5.6 mm
09:40 PM 32.4°F0.2°C 30.8°F-0.7°C 94% 2.3 mph WNW3.7 kmh WNW 3.5 mph5.6 kmh 29.19 in988.5 mb - 0.00 in0.0 mm 0.22 in5.6 mm
09:45 PM 32.2°F0.1°C 30.7°F-0.7°C 94% 2.3 mph WNW3.7 kmh WNW 3.5 mph5.6 kmh 29.19 in988.5 mb - 0.00 in0.0 mm 0.22 in5.6 mm
09:50 PM 32.2°F0.1°C 30.1°F-1.1°C 92% 3.5 mph WNW5.6 kmh WNW 3.5 mph5.6 kmh 29.19 in988.5 mb - 0.00 in0.0 mm 0.22 in5.6 mm
09:55 PM 32.2°F0.1°C 30.6°F-0.8°C 94% 3.5 mph NNW5.6 kmh NNW 3.5 mph5.6 kmh 29.19 in988.5 mb - 0.00 in0.0 mm 0.22 in5.6 mm
10:00 PM 32.2°F0.1°C 30.6°F-0.8°C 94% 3.5 mph NNW5.6 kmh NNW 3.5 mph5.6 kmh 29.19 in988.5 mb - 0.00 in0.0 mm 0.22 in5.6 mm
10:10 PM 32.2°F0.1°C 30.6°F-0.8°C 94% 3.5 mph WNW5.6 kmh WNW 3.5 mph5.6 kmh 29.19 in988.5 mb - 0.00 in0.0 mm 0.22 in5.6 mm
10:15 PM 32.1°F0.1°C 30.6°F-0.8°C 94% 2.3 mph NNW3.7 kmh NNW 2.3 mph3.7 kmh 29.20 in988.8 mb - 0.00 in0.0 mm 0.22 in5.6 mm
10:20 PM 32.2°F0.1°C 30.6°F-0.8°C 94% 3.5 mph WNW5.6 kmh WNW 3.5 mph5.6 kmh 29.20 in988.8 mb - 0.00 in0.0 mm 0.22 in5.6 mm
10:25 PM 32.2°F0.1°C 30.6°F-0.8°C 94% 4.6 mph NW7.4 kmh NW 4.6 mph7.4 kmh 29.20 in988.8 mb - 0.00 in0.0 mm 0.22 in5.6 mm
10:30 PM 32.2°F0.1°C 30.6°F-0.8°C 94% 5.8 mph NW9.3 kmh NW 6.9 mph11.1 kmh 29.21 in989.2 mb - 0.00 in0.0 mm 0.22 in5.6 mm
10:35 PM 32.2°F0.1°C 30.6°F-0.8°C 94% 4.6 mph WNW7.4 kmh WNW 5.8 mph9.3 kmh 29.21 in989.2 mb - 0.00 in0.0 mm 0.22 in5.6 mm
10:40 PM 32.2°F0.1°C 30.6°F-0.8°C 94% 4.6 mph WNW7.4 kmh WNW 5.8 mph9.3 kmh 29.21 in989.2 mb - 0.00 in0.0 mm 0.22 in5.6 mm
10:45 PM 32.2°F0.1°C 30.6°F-0.8°C 94% 3.5 mph NNW5.6 kmh NNW 5.8 mph9.3 kmh 29.22 in989.5 mb - 0.00 in0.0 mm 0.22 in5.6 mm
10:50 PM 32.2°F0.1°C 30.6°F-0.8°C 94% 3.5 mph NNW5.6 kmh NNW 4.6 mph7.4 kmh 29.22 in989.5 mb - 0.00 in0.0 mm 0.22 in5.6 mm
10:55 PM 32.2°F0.1°C 30.6°F-0.8°C 94% 3.5 mph NNW5.6 kmh NNW 3.5 mph5.6 kmh 29.22 in989.5 mb - 0.00 in0.0 mm 0.22 in5.6 mm
11:00 PM 32.2°F0.1°C 30.6°F-0.8°C 94% 5.8 mph NW9.3 kmh NW 6.9 mph11.1 kmh 29.21 in989.2 mb - 0.00 in0.0 mm 0.22 in5.6 mm
11:10 PM 32.0°F0.0°C 30.5°F-0.8°C 94% 2.3 mph NW3.7 kmh NW 2.3 mph3.7 kmh 29.21 in989.2 mb - 0.00 in0.0 mm 0.22 in5.6 mm
11:15 PM 32.0°F0.0°C 30.5°F-0.8°C 94% 1.2 mph NW1.9 kmh NW 2.3 mph3.7 kmh 29.22 in989.5 mb - 0.00 in0.0 mm 0.22 in5.6 mm
11:20 PM 32.0°F0.0°C 30.5°F-0.8°C 94% 1.2 mph WSW1.9 kmh WSW 2.3 mph3.7 kmh 29.22 in989.5 mb - 0.00 in0.0 mm 0.22 in5.6 mm
11:25 PM 32.0°F0.0°C 30.5°F-0.8°C 94% 3.5 mph WNW5.6 kmh WNW 3.5 mph5.6 kmh 29.22 in989.5 mb - 0.00 in0.0 mm 0.22 in5.6 mm
11:30 PM 32.0°F0.0°C 30.5°F-0.8°C 94% 2.3 mph NNW3.7 kmh NNW 3.5 mph5.6 kmh 29.22 in989.5 mb - 0.00 in0.0 mm 0.22 in5.6 mm
11:35 PM 32.0°F0.0°C 30.5°F-0.8°C 94% 2.3 mph WNW3.7 kmh WNW 3.5 mph5.6 kmh 29.22 in989.5 mb - 0.00 in0.0 mm 0.22 in5.6 mm
11:40 PM 32.0°F0.0°C 29.9°F-1.2°C 92% 3.5 mph WNW5.6 kmh WNW 3.5 mph5.6 kmh 29.22 in989.5 mb - 0.00 in0.0 mm 0.22 in5.6 mm
11:45 PM 32.0°F0.0°C 30.2°F-1.0°C 93% 3.5 mph WNW5.6 kmh WNW 3.5 mph5.6 kmh 29.23 in989.8 mb - 0.00 in0.0 mm 0.22 in5.6 mm
11:50 PM 32.0°F0.0°C 30.5°F-0.8°C 94% 2.3 mph WNW3.7 kmh WNW 1.2 mph1.9 kmh 29.23 in989.8 mb - 0.00 in0.0 mm 0.22 in5.6 mm
11:55 PM 32.0°F0.0°C 29.9°F-1.2°C 92% 3.5 mph WNW5.6 kmh WNW 3.5 mph5.6 kmh 29.23 in989.8 mb - 0.00 in0.0 mm 0.22 in5.6 mm